createdAt,value
2023-02-27T00:04:12.391Z,79.94
2023-02-27T00:20:39.107Z,80.19
2023-02-27T00:40:31.573Z,80.29
2023-02-27T00:59:50.597Z,80.07
2023-02-27T01:05:22.651Z,80.10
2023-02-27T01:10:26.600Z,80.15
2023-02-27T01:15:30.196Z,80.32
2023-02-27T01:21:56.147Z,80.50
2023-02-27T01:48:42.111Z,79.90
2023-02-27T02:12:45.676Z,79.98
2023-02-27T02:18:30.560Z,79.82
2023-02-27T02:31:43.880Z,79.73
2023-02-27T02:44:26.058Z,79.91
2023-02-27T02:58:58.501Z,79.72
2023-02-27T03:10:31.076Z,79.24
2023-02-27T03:16:53.740Z,79.44
2023-02-27T03:22:07.657Z,79.61
2023-02-27T03:27:13.419Z,79.75
2023-02-27T03:33:01.822Z,79.83
2023-02-27T03:38:40.785Z,79.83
2023-02-27T03:44:03.637Z,79.79
2023-02-27T03:50:38.815Z,79.77
2023-02-27T03:55:46.945Z,79.82
2023-02-27T04:09:10.479Z,79.85
2023-02-27T04:14:35.808Z,79.86
2023-02-27T04:20:16.698Z,79.88
2023-02-27T04:25:50.320Z,79.73
2023-02-27T04:38:50.629Z,79.71
2023-02-27T04:43:55.690Z,79.70
2023-02-27T04:49:12.820Z,79.75
2023-02-27T04:54:28.245Z,79.64
2023-02-27T05:01:12.116Z,79.58
2023-02-27T05:22:34.217Z,78.88
2023-02-27T05:28:33.690Z,78.76
2023-02-27T05:42:12.699Z,78.93
2023-02-27T06:15:32.946Z,78.89
2023-02-27T06:21:01.843Z,79.14
2023-02-27T06:26:33.736Z,79.32
2023-02-27T06:31:37.152Z,79.28
2023-02-27T06:36:49.857Z,79.15
2023-02-27T06:41:53.484Z,78.88
2023-02-27T06:47:00.168Z,78.66
2023-02-27T06:52:03.895Z,78.38
2023-02-27T06:57:07.726Z,77.83
2023-02-27T07:09:15.516Z,77.03
2023-02-27T07:14:19.031Z,76.44
2023-02-27T07:19:24.583Z,76.07
2023-02-27T07:25:19.728Z,75.60
2023-02-27T07:30:23.473Z,75.41
2023-02-27T07:35:27.220Z,74.96
2023-02-27T07:40:30.909Z,74.38
2023-02-27T08:03:59.555Z,69.52
2023-02-27T08:10:46.202Z,69.21
2023-02-27T08:17:32.413Z,67.96
2023-02-27T08:23:52.398Z,67.21
2023-02-27T08:36:53.813Z,65.24
2023-02-27T08:41:57.470Z,64.39
2023-02-27T08:48:17.648Z,62.87
2023-02-27T08:53:21.220Z,61.02
2023-02-27T08:59:10.377Z,59.86
2023-02-27T09:11:19.355Z,55.72
2023-02-27T09:30:45.048Z,51.99
2023-02-27T09:40:32.079Z,49.92
2023-02-27T09:45:39.725Z,50.51
2023-02-27T09:50:48.063Z,49.91
2023-02-27T09:56:47.870Z,47.65
2023-02-27T10:02:25.393Z,48.34
2023-02-27T10:07:58.711Z,46.90
2023-02-27T10:13:27.213Z,46.46
2023-02-27T10:19:00.136Z,45.67
2023-02-27T10:31:35.700Z,44.90
2023-02-27T10:37:07.540Z,43.07
2023-02-27T10:49:25.054Z,45.29
2023-02-27T10:55:30.874Z,45.85
2023-02-27T11:00:50.987Z,46.09
2023-02-27T11:06:05.176Z,46.64
2023-02-27T11:11:28.116Z,46.09
2023-02-27T11:23:50.738Z,44.77
2023-02-27T11:29:15.395Z,44.92
2023-02-27T11:34:50.105Z,43.81
2023-02-27T11:40:10.706Z,43.46
2023-02-27T11:46:05.021Z,41.53
2023-02-27T11:51:28.718Z,42.90
2023-02-27T11:57:01.316Z,42.60
2023-02-27T12:03:17.895Z,41.31
2023-02-27T12:08:55.591Z,40.28
2023-02-27T12:14:25.560Z,41.36
2023-02-27T12:19:46.305Z,40.44
2023-02-27T12:25:07.392Z,40.16
2023-02-27T12:37:48.117Z,41.24
2023-02-27T12:51:10.780Z,40.14
2023-02-27T13:04:03.590Z,37.77
2023-02-27T13:09:21.961Z,35.97
2023-02-27T13:14:55.178Z,33.72
2023-02-27T13:20:21.410Z,30.83
2023-02-27T13:25:42.363Z,30.21
2023-02-27T13:39:39.386Z,26.90
2023-02-27T13:44:46.065Z,26.36
2023-02-27T13:57:47.414Z,26.02
2023-02-27T14:03:23.077Z,25.22
2023-02-27T14:09:08.872Z,24.52
2023-02-27T14:14:42.294Z,24.39
2023-02-27T14:19:50.886Z,24.61
2023-02-27T14:25:24.952Z,24.63
2023-02-27T14:31:29.305Z,25.88
2023-02-27T14:36:53.967Z,30.11
2023-02-27T14:42:47.161Z,30.16
2023-02-27T14:48:14.369Z,28.87
2023-02-27T14:53:31.553Z,29.83
2023-02-27T14:59:57.084Z,32.77
2023-02-27T15:05:03.789Z,35.54
2023-02-27T15:10:17.560Z,37.77
2023-02-27T15:22:39.905Z,39.47
2023-02-27T15:27:44.072Z,41.51
2023-02-27T15:32:47.791Z,42.60
2023-02-27T15:37:59.703Z,43.74
2023-02-27T15:44:50.834Z,44.81
2023-02-27T15:50:07.282Z,46.27
2023-02-27T16:10:28.444Z,50.03
2023-02-27T16:17:02.041Z,50.76
2023-02-27T16:22:15.706Z,51.73
2023-02-27T16:27:30.477Z,52.48
2023-02-27T16:32:44.434Z,53.17
2023-02-27T16:38:43.302Z,53.72
2023-02-27T16:50:55.279Z,55.72
2023-02-27T16:55:59.130Z,56.47
2023-02-27T17:01:03.406Z,57.33
2023-02-27T17:21:59.291Z,59.88
2023-02-27T17:27:03.052Z,60.60
2023-02-27T17:32:07.360Z,61.37
2023-02-27T17:37:11.363Z,61.86
2023-02-27T17:42:18.813Z,62.24
2023-02-27T17:47:23.292Z,62.64
2023-02-27T17:52:28.000Z,62.69
2023-02-27T17:57:31.747Z,63.08
2023-02-27T18:03:00.757Z,63.49
2023-02-27T18:08:04.415Z,63.92
2023-02-27T18:13:08.430Z,63.99
2023-02-27T18:18:13.471Z,64.50
2023-02-27T18:23:17.406Z,64.67
2023-02-27T18:28:21.277Z,65.11
2023-02-27T18:33:26.381Z,65.23
2023-02-27T18:38:30.343Z,65.45
2023-02-27T18:43:34.442Z,65.59
2023-02-27T18:48:39.687Z,65.83
2023-02-27T19:08:30.863Z,67.39
2023-02-27T19:20:52.475Z,68.68
2023-02-27T19:26:53.536Z,68.75
2023-02-27T19:40:28.246Z,69.51
2023-02-27T19:45:33.363Z,70.02
2023-02-27T19:51:28.652Z,70.28
2023-02-27T19:56:32.465Z,70.40
2023-02-27T20:02:59.078Z,70.66
2023-02-27T20:08:02.996Z,71.04
2023-02-27T20:13:08.473Z,71.29
2023-02-27T20:18:12.338Z,71.35
2023-02-27T20:23:18.673Z,72.01
2023-02-27T20:28:23.795Z,72.08
2023-02-27T20:33:27.507Z,71.94
2023-02-27T20:38:33.645Z,72.00
2023-02-27T20:43:39.084Z,72.12
2023-02-27T20:48:44.125Z,72.13
2023-02-27T20:53:52.238Z,71.93
2023-02-27T20:58:56.071Z,71.82
2023-02-27T21:04:03.309Z,72.24
2023-02-27T21:16:26.046Z,72.85
2023-02-27T21:21:33.865Z,72.97
2023-02-27T21:27:27.705Z,73.07
2023-02-27T21:32:31.273Z,73.15
2023-02-27T21:37:34.999Z,73.36
2023-02-27T21:42:38.649Z,73.56
2023-02-27T21:47:48.813Z,73.51
2023-02-27T21:52:52.428Z,73.51
2023-02-27T21:57:56.455Z,73.43
2023-02-27T22:03:00.212Z,73.33
2023-02-27T22:08:16.339Z,73.40
2023-02-27T22:13:19.945Z,73.64
2023-02-27T22:18:27.681Z,73.68
2023-02-27T22:23:31.195Z,73.82
2023-02-27T22:28:40.294Z,73.79
2023-02-27T22:33:46.446Z,73.84
2023-02-27T22:38:51.838Z,73.86
2023-02-27T22:43:56.896Z,74.05
2023-02-27T22:49:21.300Z,74.20
2023-02-27T22:54:25.091Z,74.38
2023-02-27T22:59:28.690Z,74.50
2023-02-27T23:04:32.396Z,74.32
2023-02-27T23:09:35.992Z,74.03
2023-02-27T23:14:39.605Z,73.92
2023-02-27T23:19:44.265Z,74.13
2023-02-27T23:24:47.878Z,74.24
2023-02-27T23:29:51.827Z,74.36
2023-02-27T23:34:55.631Z,74.51
2023-02-27T23:39:59.304Z,74.86
2023-02-27T23:45:12.305Z,75.00
2023-02-27T23:50:15.821Z,74.88
2023-02-27T23:55:21.602Z,74.96
